地図

経路データ

SID SEASON NUMBER BASIN SUBBASIN NAME ISO_TIME NATURE LAT LON WMO_WIND WMO_PRES WMO_AGENCY TRACK_TYPE DIST2LAND LANDFALL IFLAG USA_AGENCY USA_ATCF_ID USA_LAT USA_LON USA_RECORD USA_STATUS USA_WIND USA_PRES USA_SSHS USA_R34_NE USA_R34_SE USA_R34_SW USA_R34_NW USA_R50_NE USA_R50_SE USA_R50_SW USA_R50_NW USA_R64_NE USA_R64_SE USA_R64_SW USA_R64_NW USA_POCI USA_ROCI USA_RMW USA_EYE TOKYO_LAT TOKYO_LON TOKYO_GRADE TOKYO_WIND TOKYO_PRES TOKYO_R50_DIR TOKYO_R50_LONG TOKYO_R50_SHORT TOKYO_R30_DIR TOKYO_R30_LONG TOKYO_R30_SHORT TOKYO_LAND CMA_LAT CMA_LON CMA_CAT CMA_WIND CMA_PRES HKO_LAT HKO_LON HKO_CAT HKO_WIND HKO_PRES NEWDELHI_LAT NEWDELHI_LON NEWDELHI_GRADE NEWDELHI_WIND NEWDELHI_PRES NEWDELHI_CI NEWDELHI_DP NEWDELHI_POCI REUNION_LAT REUNION_LON REUNION_TYPE REUNION_WIND REUNION_PRES REUNION_TNUM REUNION_CI REUNION_RMW REUNION_R34_NE REUNION_R34_SE REUNION_R34_SW REUNION_R34_NW REUNION_R50_NE REUNION_R50_SE REUNION_R50_SW REUNION_R50_NW REUNION_R64_NE REUNION_R64_SE REUNION_R64_SW REUNION_R64_NW BOM_LAT BOM_LON BOM_TYPE BOM_WIND BOM_PRES BOM_TNUM BOM_CI BOM_RMW BOM_R34_NE BOM_R34_SE BOM_R34_SW BOM_R34_NW BOM_R50_NE BOM_R50_SE BOM_R50_SW BOM_R50_NW BOM_R64_NE BOM_R64_SE BOM_R64_SW BOM_R64_NW BOM_ROCI BOM_POCI BOM_EYE BOM_POS_METHOD BOM_PRES_METHOD NADI_LAT NADI_LON NADI_CAT NADI_WIND NADI_PRES WELLINGTON_LAT WELLINGTON_LON WELLINGTON_WIND WELLINGTON_PRES DS824_LAT DS824_LON DS824_STAGE DS824_WIND DS824_PRES TD9636_LAT TD9636_LON TD9636_STAGE TD9636_WIND TD9636_PRES TD9635_LAT TD9635_LON TD9635_WIND TD9635_PRES TD9635_ROCI NEUMANN_LAT NEUMANN_LON NEUMANN_CLASS NEUMANN_WIND NEUMANN_PRES MLC_LAT MLC_LON MLC_CLASS MLC_WIND MLC_PRES USA_GUST BOM_GUST BOM_GUST_PER REUNION_GUST REUNION_GUST_PER USA_SEAHGT USA_SEARAD_NE USA_SEARAD_SE USA_SEARAD_SW USA_SEARAD_NW STORM_SPEED STORM_DIR
1934184N05135 1934 30 WP MM NOT_NAMED 1934-07-03 10:00:00 NR 5.00000 134.900 main 640 640 __________O___ -1 5.00000 134.900 7 1 0
1934184N05135 1934 30 WP MM NOT_NAMED 1934-07-03 12:00:00 NR 5.01696 134.903 main 640 640 __________P___ -1 5.01696 134.903 7 1 0
1934184N05135 1934 30 WP MM NOT_NAMED 1934-07-03 15:00:00 NR 5.06104 134.895 main 651 651 __________P___ -1 5.06104 134.895 7 1 337
1934184N05135 1934 30 WP MM NOT_NAMED 1934-07-03 18:00:00 NR 5.15305 134.850 main 662 658 __________P___ -1 5.15305 134.850 7 3 332
1934184N05135 1934 30 WP MM NOT_NAMED 1934-07-03 21:00:00 NR 5.32175 134.750 main 666 666 __________P___ -1 5.32175 134.750 7 4 329
1934184N05135 1934 30 WP MM NOT_NAMED 1934-07-03 22:00:00 NR 5.40000 134.700 main 676 676 __________O___ -1 5.40000 134.700 7 6 327
1934184N05135 1934 30 WP MM NOT_NAMED 1934-07-04 00:00:00 NR 5.59247 134.573 main 695 692 __________P___ -1 5.59247 134.573 7 8 326
1934184N05135 1934 30 WP MM NOT_NAMED 1934-07-04 03:00:00 NR 5.95066 134.327 main 731 726 __________P___ -1 5.95066 134.327 7 9 325
1934184N05135 1934 30 WP MM NOT_NAMED 1934-07-04 06:00:00 NR 6.35611 134.031 main 732 727 __________P___ -1 6.35611 134.031 7 10 323
1934184N05135 1934 30 WP MM NOT_NAMED 1934-07-04 09:00:00 NR 6.76818 133.709 main 734 733 __________P___ -1 6.76818 133.709 7 10 322
1934184N05135 1934 30 WP MM NOT_NAMED 1934-07-04 10:00:00 NR 6.90000 133.600 main 733 733 __________O___ -1 6.90000 133.600 7 9 321
1934184N05135 1934 30 WP MM NOT_NAMED 1934-07-04 12:00:00 NR 7.13059 133.410 main 733 717 __________P___ -1 7.13059 133.410 7 9 319
1934184N05135 1934 30 WP MM NOT_NAMED 1934-07-04 15:00:00 NR 7.46396 133.114 main 717 683 __________P___ -1 7.46396 133.114 7 9 317
1934184N05135 1934 30 WP MM NOT_NAMED 1934-07-04 18:00:00 NR 7.78516 132.791 main 683 640 __________P___ -1 7.78516 132.791 7 9 313
1934184N05135 1934 30 WP MM NOT_NAMED 1934-07-04 21:00:00 NR 8.09738 132.431 main 640 630 __________P___ -1 8.09738 132.431 7 10 310
1934184N05135 1934 30 WP MM NOT_NAMED 1934-07-04 22:00:00 NR 8.20000 132.300 main 630 600 __________O___ -1 8.20000 132.300 7 10 309
1934184N05135 1934 30 WP MM NOT_NAMED 1934-07-05 00:00:00 NR 8.41346 132.033 main 600 562 __________P___ -1 8.41346 132.033 7 11 307
1934184N05135 1934 30 WP MM NOT_NAMED 1934-07-05 03:00:00 NR 8.72752 131.596 main 562 516 __________P___ -1 8.72752 131.596 7 11 304
1934184N05135 1934 30 WP MM NOT_NAMED 1934-07-05 06:00:00 NR 9.02879 131.113 main 516 475 __________P___ -1 9.02879 131.113 7 12 300
1934184N05135 1934 30 WP MM NOT_NAMED 1934-07-05 09:00:00 NR 9.31115 130.586 main 475 455 __________P___ -1 9.31115 130.586 7 12 298
1934184N05135 1934 30 WP MM NOT_NAMED 1934-07-05 10:00:00 NR 9.40000 130.400 main 455 416 __________O___ -1 9.40000 130.400 7 12 295
1934184N05135 1934 30 WP MM NOT_NAMED 1934-07-05 12:00:00 NR 9.56906 130.014 main 416 357 __________P___ -1 9.56906 130.014 7 13 292
1934184N05135 1934 30 WP MM NOT_NAMED 1934-07-05 15:00:00 NR 9.80421 129.405 main 357 299 __________P___ -1 9.80421 129.405 7 13 290
1934184N05135 1934 30 WP MM NOT_NAMED 1934-07-05 18:00:00 NR 10.0229 128.770 main 299 236 __________P___ -1 10.0229 128.770 7 13 289
1934184N05135 1934 30 WP MM NOT_NAMED 1934-07-05 21:00:00 NR 10.2316 128.119 main 236 223 __________P___ -1 10.2316 128.119 7 14 288
1934184N05135 1934 30 WP MM NOT_NAMED 1934-07-05 22:00:00 NR 10.3000 127.900 main 223 __________O___ -1 10.3000 127.900 7 14 288

デジタル台風データ・検索

IBTrACS Databaseについて

本データベースは、米国NOAAが公開する1842年以降の世界の熱帯低気圧のベストトラックデータアーカイブInternational Best Track Archive for Climate Stewardship (IBTrACS)を、ウェブで閲覧しやすい形式に変換したものです。

最終更新日:2021-12-01